createdAt,value
2022-08-21T00:02:04.131Z,65.36
2022-08-21T00:04:31.576Z,65.66
2022-08-21T00:06:59.691Z,65.72
2022-08-21T00:09:26.821Z,65.61
2022-08-21T00:11:53.803Z,65.05
2022-08-21T00:14:20.785Z,65.53
2022-08-21T00:16:47.743Z,65.73
2022-08-21T00:19:14.935Z,66.05
2022-08-21T00:21:44.358Z,66.11
2022-08-21T00:24:12.686Z,65.93
2022-08-21T00:26:40.188Z,66.16
2022-08-21T00:29:07.186Z,65.71
2022-08-21T00:31:34.232Z,66.55
2022-08-21T00:34:01.497Z,66.76
2022-08-21T00:36:29.269Z,67.30
2022-08-21T00:38:57.061Z,67.03
2022-08-21T00:41:37.359Z,67.41
2022-08-21T00:44:08.687Z,67.08
2022-08-21T00:46:36.733Z,67.60
2022-08-21T00:49:06.793Z,67.66
2022-08-21T00:51:38.665Z,66.54
2022-08-21T00:54:12.986Z,67.21
2022-08-21T00:56:53.623Z,67.79
2022-08-21T00:59:23.901Z,68.53
2022-08-21T01:01:53.274Z,68.73
2022-08-21T01:04:21.877Z,69.15
2022-08-21T01:06:48.861Z,69.43
2022-08-21T01:09:16.205Z,69.37
2022-08-21T01:11:44.095Z,69.80
2022-08-21T01:14:13.962Z,70.62
2022-08-21T01:16:45.598Z,70.36
2022-08-21T01:19:14.024Z,70.54
2022-08-21T01:21:41.044Z,71.57
2022-08-21T01:24:08.099Z,71.56
2022-08-21T01:26:37.292Z,71.32
2022-08-21T01:29:24.286Z,70.80
2022-08-21T01:31:51.314Z,71.56
2022-08-21T01:34:19.530Z,72.23
2022-08-21T01:36:48.092Z,71.56
2022-08-21T01:39:16.570Z,71.61
2022-08-21T01:41:44.283Z,71.90
2022-08-21T01:44:11.299Z,72.09
2022-08-21T01:46:38.305Z,71.69
2022-08-21T01:49:06.242Z,71.21
2022-08-21T01:51:33.525Z,71.70
2022-08-21T01:54:00.721Z,71.51
2022-08-21T01:56:28.989Z,72.15
2022-08-21T01:58:56.313Z,72.41
2022-08-21T02:01:23.430Z,72.91
2022-08-21T02:03:50.591Z,73.26
2022-08-21T02:06:19.085Z,73.86
2022-08-21T02:08:47.275Z,73.56
2022-08-21T02:11:14.438Z,73.13
2022-08-21T02:13:41.417Z,73.04
2022-08-21T02:16:08.885Z,73.89
2022-08-21T02:18:36.700Z,74.60
2022-08-21T02:21:05.130Z,74.81
2022-08-21T02:23:33.650Z,75.16
2022-08-21T02:26:03.671Z,75.66
2022-08-21T02:28:31.053Z,76.81
2022-08-21T02:30:58.956Z,77.15
2022-08-21T02:33:27.231Z,77.43
2022-08-21T02:35:54.861Z,78.13
2022-08-21T02:38:31.927Z,78.15
2022-08-21T02:40:59.400Z,78.88
2022-08-21T02:43:29.263Z,78.16
2022-08-21T02:45:58.262Z,78.48
2022-08-21T02:48:31.607Z,79.14
2022-08-21T02:51:12.662Z,79.42
2022-08-21T02:53:41.703Z,80.64
2022-08-21T02:56:13.387Z,79.93
2022-08-21T02:58:45.696Z,79.38
2022-08-21T03:01:13.288Z,79.18
2022-08-21T03:03:43.522Z,79.72
2022-08-21T03:06:14.409Z,79.58
2022-08-21T03:08:41.554Z,80.16
2022-08-21T03:11:08.765Z,80.68
2022-08-21T03:13:37.864Z,80.81
2022-08-21T03:16:05.422Z,80.93
2022-08-21T03:18:37.483Z,80.66
2022-08-21T03:21:05.795Z,81.28
2022-08-21T03:23:33.045Z,80.50
2022-08-21T03:26:01.547Z,80.83
2022-08-21T03:28:29.208Z,80.69
2022-08-21T03:30:56.484Z,80.82
2022-08-21T03:33:24.146Z,80.73
2022-08-21T03:36:04.440Z,81.37
2022-08-21T03:38:35.303Z,81.33
2022-08-21T03:41:03.814Z,81.54
2022-08-21T03:43:32.322Z,82.13
2022-08-21T03:46:03.066Z,80.85
2022-08-21T03:48:30.351Z,81.75
2022-08-21T03:50:57.614Z,81.94
2022-08-21T03:53:26.929Z,80.97
2022-08-21T03:55:54.688Z,80.50
2022-08-21T03:58:25.260Z,79.65
2022-08-21T04:00:57.517Z,78.68
2022-08-21T04:03:25.956Z,77.06
2022-08-21T04:05:53.421Z,76.67
2022-08-21T04:08:21.010Z,75.14
2022-08-21T04:10:53.124Z,75.15
2022-08-21T04:13:20.728Z,73.48
2022-08-21T04:15:48.775Z,73.13
2022-08-21T04:18:16.024Z,70.86
2022-08-21T04:20:49.985Z,68.73
2022-08-21T04:23:24.044Z,67.93
2022-08-21T04:25:53.519Z,65.76
2022-08-21T04:28:21.625Z,65.11
2022-08-21T04:30:53.586Z,63.67
2022-08-21T04:33:22.481Z,61.54
2022-08-21T04:35:51.337Z,60.79
2022-08-21T04:38:18.508Z,62.93
2022-08-21T04:40:45.651Z,60.23
2022-08-21T04:43:12.939Z,58.87
2022-08-21T04:45:48.410Z,57.48
2022-08-21T04:48:18.856Z,54.82
2022-08-21T04:51:10.846Z,54.12
2022-08-21T04:53:44.151Z,51.33
2022-08-21T04:56:36.301Z,51.35
2022-08-21T04:59:12.219Z,47.58
2022-08-21T05:01:41.003Z,46.40
2022-08-21T05:04:14.030Z,44.25
2022-08-21T05:06:45.329Z,41.92
2022-08-21T05:09:17.103Z,40.53
2022-08-21T05:11:45.183Z,38.84
2022-08-21T05:14:14.124Z,38.35
2022-08-21T05:16:42.848Z,38.04
2022-08-21T05:19:10.148Z,36.75
2022-08-21T05:21:42.370Z,36.34
2022-08-21T05:24:09.596Z,37.53
2022-08-21T05:26:45.523Z,38.35
2022-08-21T05:29:17.038Z,38.75
2022-08-21T05:31:47.497Z,38.08
2022-08-21T05:34:19.098Z,37.92
2022-08-21T05:36:46.284Z,36.78
2022-08-21T05:39:13.761Z,36.86
2022-08-21T05:41:40.980Z,35.69
2022-08-21T05:44:10.175Z,34.22
2022-08-21T05:46:38.963Z,34.12
2022-08-21T05:49:06.066Z,33.88
2022-08-21T05:51:33.017Z,31.92
2022-08-21T05:54:00.000Z,30.48
2022-08-21T05:56:27.220Z,32.36
2022-08-21T05:58:54.324Z,31.45
2022-08-21T06:01:21.439Z,30.35
2022-08-21T06:03:48.564Z,30.82
2022-08-21T06:06:15.514Z,31.21
2022-08-21T06:08:42.939Z,33.25
2022-08-21T06:11:10.737Z,33.95
2022-08-21T06:13:38.872Z,33.32
2022-08-21T06:16:16.560Z,32.28
2022-08-21T06:18:46.013Z,32.36
2022-08-21T06:21:14.584Z,32.26
2022-08-21T06:23:42.650Z,32.47
2022-08-21T06:26:12.524Z,33.73
2022-08-21T06:28:41.247Z,34.48
2022-08-21T06:31:20.604Z,34.24
2022-08-21T06:33:47.871Z,33.06
2022-08-21T06:36:15.807Z,31.45
2022-08-21T06:38:49.117Z,30.50
2022-08-21T06:41:22.538Z,31.01
2022-08-21T06:43:54.136Z,30.02
2022-08-21T06:46:21.215Z,29.02
2022-08-21T06:48:48.718Z,29.43
2022-08-21T06:51:15.899Z,28.93
2022-08-21T06:53:43.922Z,28.49
2022-08-21T06:56:10.921Z,28.13
2022-08-21T06:58:38.001Z,27.59
2022-08-21T07:01:05.706Z,26.88
2022-08-21T07:03:39.841Z,26.59
2022-08-21T07:06:09.035Z,28.04
2022-08-21T07:08:37.068Z,27.59
2022-08-21T07:11:12.134Z,27.13
2022-08-21T07:13:39.141Z,27.85
2022-08-21T07:16:06.507Z,26.09
2022-08-21T07:18:33.496Z,26.84
2022-08-21T07:21:04.658Z,27.05
2022-08-21T07:23:42.578Z,26.41
2022-08-21T07:26:11.714Z,27.51
2022-08-21T07:28:38.816Z,27.77
2022-08-21T07:31:06.477Z,28.23
2022-08-21T07:33:35.960Z,27.63
2022-08-21T07:36:03.761Z,28.00
2022-08-21T07:38:30.821Z,27.63
2022-08-21T07:41:00.325Z,28.20
2022-08-21T07:43:28.881Z,28.44
2022-08-21T07:45:56.505Z,29.19
2022-08-21T07:48:23.751Z,29.78
2022-08-21T07:50:52.161Z,29.26
2022-08-21T07:53:19.241Z,30.56
2022-08-21T07:55:46.356Z,30.97
2022-08-21T07:58:13.728Z,31.21
2022-08-21T08:00:41.868Z,31.25
2022-08-21T08:03:09.420Z,32.21
2022-08-21T08:05:38.592Z,31.66
2022-08-21T08:08:05.653Z,31.96
2022-08-21T08:10:32.797Z,31.54
2022-08-21T08:13:00.318Z,31.41
2022-08-21T08:15:28.831Z,31.18
2022-08-21T08:17:57.773Z,32.50
2022-08-21T08:20:27.717Z,30.64
2022-08-21T08:22:55.552Z,31.42
2022-08-21T08:25:24.660Z,31.94
2022-08-21T08:27:51.880Z,31.35
2022-08-21T08:30:22.583Z,31.75
2022-08-21T08:32:50.541Z,31.90
2022-08-21T08:35:18.481Z,31.51
2022-08-21T08:37:52.452Z,32.85
2022-08-21T08:40:30.229Z,34.13
2022-08-21T08:42:57.455Z,34.42
2022-08-21T08:45:27.243Z,33.60
2022-08-21T08:48:01.345Z,32.98
2022-08-21T08:51:15.385Z,33.88
2022-08-21T08:53:59.237Z,34.50
2022-08-21T08:56:33.815Z,34.34
2022-08-21T08:59:14.820Z,34.73
2022-08-21T09:01:43.180Z,35.31
2022-08-21T09:04:13.635Z,35.10
2022-08-21T09:07:14.909Z,35.67
2022-08-21T09:10:14.847Z,34.50
2022-08-21T09:12:47.305Z,35.05
2022-08-21T09:15:42.284Z,35.57
2022-08-21T09:18:20.765Z,36.18
2022-08-21T09:21:19.076Z,37.48
2022-08-21T09:24:41.264Z,38.02
2022-08-21T09:27:21.825Z,38.64
2022-08-21T09:29:52.898Z,37.97
2022-08-21T09:32:36.906Z,39.26
2022-08-21T09:35:18.894Z,40.81
2022-08-21T09:38:08.749Z,40.07
2022-08-21T09:40:41.504Z,38.69
2022-08-21T09:43:25.030Z,37.80
2022-08-21T09:46:05.686Z,36.79
2022-08-21T09:48:46.684Z,36.82
2022-08-21T09:51:38.084Z,36.36
2022-08-21T09:54:08.334Z,36.10
2022-08-21T09:56:57.858Z,36.10
2022-08-21T09:59:36.891Z,37.97
2022-08-21T10:02:35.490Z,38.06
2022-08-21T10:05:09.622Z,38.72
2022-08-21T10:07:39.464Z,38.85
2022-08-21T10:10:15.102Z,39.16
2022-08-21T10:13:04.015Z,39.01
2022-08-21T10:15:57.307Z,39.56
2022-08-21T10:18:30.811Z,40.47
2022-08-21T10:21:30.487Z,40.63
2022-08-21T10:24:38.984Z,40.65
2022-08-21T10:27:17.827Z,42.32
2022-08-21T10:30:04.951Z,42.32
2022-08-21T10:33:00.765Z,41.83
2022-08-21T10:35:51.591Z,42.99
2022-08-21T10:43:03.726Z,43.56
2022-08-21T10:46:18.273Z,43.57
2022-08-21T10:48:52.754Z,44.03
2022-08-21T10:51:39.622Z,43.00
2022-08-21T10:54:23.524Z,42.70
2022-08-21T10:57:00.493Z,44.08
2022-08-21T11:00:00.794Z,44.34
2022-08-21T11:02:37.923Z,44.43
2022-08-21T11:05:29.296Z,44.61
2022-08-21T11:08:34.767Z,43.73
2022-08-21T11:11:23.576Z,42.05
2022-08-21T11:13:58.003Z,42.56
2022-08-21T11:16:42.441Z,42.59
2022-08-21T11:19:31.965Z,42.41
2022-08-21T11:22:29.092Z,42.10
2022-08-21T11:25:22.726Z,41.67
2022-08-21T11:28:14.230Z,40.34
2022-08-21T11:30:56.683Z,41.21
2022-08-21T11:33:43.564Z,39.39
2022-08-21T11:37:07.030Z,39.54
2022-08-21T11:39:39.806Z,39.64
2022-08-21T11:42:51.480Z,39.15
2022-08-21T11:45:39.772Z,38.94
2022-08-21T11:48:25.144Z,39.32
2022-08-21T11:50:53.404Z,38.71
2022-08-21T11:53:54.104Z,39.58
2022-08-21T11:56:46.763Z,40.84
2022-08-21T11:59:23.128Z,41.40
2022-08-21T12:01:52.811Z,40.63
2022-08-21T12:04:28.642Z,40.27
2022-08-21T12:06:56.910Z,40.26
2022-08-21T12:09:26.874Z,40.69
2022-08-21T12:12:11.514Z,40.83
2022-08-21T12:14:45.518Z,40.57
2022-08-21T12:17:24.665Z,41.57
2022-08-21T12:20:35.831Z,41.46
2022-08-21T12:23:13.088Z,39.92
2022-08-21T12:26:02.204Z,40.19
2022-08-21T12:28:31.988Z,39.29
2022-08-21T12:30:59.439Z,39.30
2022-08-21T12:33:38.870Z,38.84
2022-08-21T12:36:16.594Z,38.17
2022-08-21T12:38:52.552Z,37.63
2022-08-21T12:41:34.448Z,38.85
2022-08-21T12:44:17.481Z,40.26
2022-08-21T12:47:45.011Z,40.24
2022-08-21T12:50:24.708Z,40.57
2022-08-21T12:53:20.664Z,39.82
2022-08-21T12:55:48.421Z,40.75
2022-08-21T12:58:24.977Z,39.55
2022-08-21T13:01:08.868Z,40.23
2022-08-21T13:03:38.715Z,41.50
2022-08-21T13:06:07.681Z,41.58
2022-08-21T13:08:41.773Z,43.05
2022-08-21T13:11:13.615Z,43.14
2022-08-21T13:13:47.139Z,41.60
2022-08-21T13:16:26.219Z,40.79
2022-08-21T13:18:59.785Z,41.10
2022-08-21T13:21:43.379Z,41.64
2022-08-21T13:27:27.732Z,41.28
2022-08-21T13:30:23.133Z,41.26
2022-08-21T13:32:56.777Z,42.31
2022-08-21T13:35:32.700Z,43.28
2022-08-21T13:38:01.034Z,43.65
2022-08-21T13:40:40.733Z,43.85
2022-08-21T13:43:15.287Z,44.28
2022-08-21T13:45:54.777Z,44.65
2022-08-21T13:48:27.341Z,43.87
2022-08-21T13:50:55.098Z,42.61
2022-08-21T13:53:37.364Z,43.16
2022-08-21T13:56:05.894Z,43.56
2022-08-21T13:58:47.376Z,43.95
2022-08-21T14:01:31.471Z,44.78
2022-08-21T14:04:29.793Z,45.04
2022-08-21T14:06:58.030Z,45.91
2022-08-21T14:09:36.805Z,46.28
2022-08-21T14:12:23.305Z,46.65
2022-08-21T14:14:52.610Z,47.07
2022-08-21T14:17:39.584Z,46.32
2022-08-21T14:20:14.086Z,45.76
2022-08-21T14:22:49.871Z,46.34
2022-08-21T14:25:43.943Z,45.96
2022-08-21T14:28:38.957Z,46.29
2022-08-21T14:31:22.450Z,46.10
2022-08-21T14:33:49.802Z,45.76
2022-08-21T14:36:16.807Z,46.20
2022-08-21T14:38:43.910Z,45.68
2022-08-21T14:41:24.893Z,45.49
2022-08-21T14:43:55.808Z,44.89
2022-08-21T14:46:35.737Z,45.77
2022-08-21T14:49:04.388Z,44.93
2022-08-21T14:51:31.537Z,45.52
2022-08-21T14:53:58.488Z,45.16
2022-08-21T14:56:26.771Z,45.69
2022-08-21T14:58:54.468Z,45.49
2022-08-21T15:01:23.279Z,45.21
2022-08-21T15:03:50.778Z,44.26
2022-08-21T15:06:22.525Z,44.99
2022-08-21T15:08:49.618Z,43.67
2022-08-21T15:11:42.949Z,44.00
2022-08-21T15:14:19.876Z,44.20
2022-08-21T15:16:48.164Z,44.08
2022-08-21T15:19:15.172Z,44.37
2022-08-21T15:21:42.122Z,43.98
2022-08-21T15:24:09.176Z,43.96
2022-08-21T15:26:37.211Z,45.35
2022-08-21T15:29:07.991Z,45.43
2022-08-21T15:31:36.085Z,45.00
2022-08-21T15:34:03.660Z,45.33
2022-08-21T15:36:30.675Z,45.71
2022-08-21T15:38:57.663Z,45.99
2022-08-21T15:41:24.658Z,46.36
2022-08-21T15:43:54.189Z,46.43
2022-08-21T15:46:22.373Z,46.69
2022-08-21T15:48:49.529Z,46.94
2022-08-21T15:51:17.938Z,46.35
2022-08-21T15:53:47.429Z,46.85
2022-08-21T15:56:28.437Z,47.60
2022-08-21T15:59:13.168Z,47.69
2022-08-21T16:01:44.891Z,47.83
2022-08-21T16:04:21.060Z,48.58
2022-08-21T16:06:53.943Z,49.14
2022-08-21T16:09:22.056Z,49.40
2022-08-21T16:11:49.235Z,49.84
2022-08-21T16:14:17.855Z,49.29
2022-08-21T16:16:45.262Z,49.60
2022-08-21T16:19:13.769Z,50.18
2022-08-21T16:21:41.129Z,50.51
2022-08-21T16:24:08.322Z,50.01
2022-08-21T16:26:35.533Z,50.43
2022-08-21T16:29:07.373Z,50.28
2022-08-21T16:31:34.668Z,50.94
2022-08-21T16:34:02.657Z,51.37
2022-08-21T16:36:29.930Z,50.94
2022-08-21T16:39:01.890Z,51.77
2022-08-21T16:41:34.586Z,52.05
2022-08-21T16:44:02.392Z,52.64
2022-08-21T16:46:36.681Z,52.62
2022-08-21T16:49:03.974Z,53.36
2022-08-21T16:51:31.777Z,52.81
2022-08-21T16:54:00.068Z,53.33
2022-08-21T16:56:27.245Z,53.82
2022-08-21T16:58:56.596Z,54.06
2022-08-21T17:01:30.046Z,54.41
2022-08-21T17:03:57.835Z,54.91
2022-08-21T17:06:29.102Z,54.60
2022-08-21T17:08:57.001Z,55.19
2022-08-21T17:11:42.634Z,55.23
2022-08-21T17:14:23.339Z,55.45
2022-08-21T17:16:54.472Z,56.35
2022-08-21T17:19:22.391Z,57.05
2022-08-21T17:21:49.980Z,56.43
2022-08-21T17:24:17.046Z,57.08
2022-08-21T17:26:44.907Z,57.27
2022-08-21T17:29:15.316Z,57.39
2022-08-21T17:31:44.451Z,57.06
2022-08-21T17:34:12.563Z,57.30
2022-08-21T17:36:39.497Z,57.79
2022-08-21T17:39:06.570Z,57.87
2022-08-21T17:41:34.604Z,57.78
2022-08-21T17:44:07.310Z,58.30
2022-08-21T17:46:34.532Z,58.74
2022-08-21T17:49:01.649Z,58.07
2022-08-21T17:51:28.998Z,58.36
2022-08-21T17:53:56.310Z,59.05
2022-08-21T17:56:32.248Z,59.24
2022-08-21T17:58:59.532Z,59.43
2022-08-21T18:01:32.590Z,60.00
2022-08-21T18:03:59.590Z,59.98
2022-08-21T18:06:26.940Z,60.52
2022-08-21T18:08:53.930Z,60.22
2022-08-21T18:11:24.458Z,60.52
2022-08-21T18:13:54.192Z,61.24
2022-08-21T18:16:22.997Z,60.70
2022-08-21T18:18:51.768Z,60.27
2022-08-21T18:21:19.772Z,61.17
2022-08-21T18:23:47.048Z,60.96
2022-08-21T18:26:21.693Z,61.25
2022-08-21T18:28:48.864Z,60.93
2022-08-21T18:31:16.031Z,60.90
2022-08-21T18:33:45.618Z,61.95
2022-08-21T18:36:26.629Z,61.42
2022-08-21T18:38:55.095Z,61.46
2022-08-21T18:41:22.701Z,61.28
2022-08-21T18:43:49.785Z,60.76
2022-08-21T18:46:17.485Z,60.98
2022-08-21T18:48:44.558Z,60.99
2022-08-21T18:51:12.393Z,60.54
2022-08-21T18:53:39.732Z,61.00
2022-08-21T18:56:15.890Z,60.88
2022-08-21T18:58:44.817Z,61.61
2022-08-21T19:01:12.480Z,61.52
2022-08-21T19:03:39.994Z,61.13
2022-08-21T19:06:09.797Z,61.22
2022-08-21T19:08:39.032Z,60.96
2022-08-21T19:11:06.878Z,61.31
2022-08-21T19:13:34.555Z,61.91
2022-08-21T19:16:05.245Z,62.30
2022-08-21T19:18:37.710Z,62.42
2022-08-21T19:21:07.026Z,62.94
2022-08-21T19:23:35.532Z,62.48
2022-08-21T19:26:06.616Z,62.85
2022-08-21T19:28:44.746Z,63.50
2022-08-21T19:31:25.720Z,63.12
2022-08-21T19:34:11.220Z,63.27
2022-08-21T19:36:39.028Z,63.38
2022-08-21T19:39:11.155Z,63.56
2022-08-21T19:41:45.480Z,62.72
2022-08-21T19:44:23.154Z,63.81
2022-08-21T19:46:52.796Z,63.72
2022-08-21T19:49:34.327Z,63.94
2022-08-21T19:52:02.299Z,63.73
2022-08-21T19:54:40.252Z,63.51
2022-08-21T19:57:11.419Z,64.96
2022-08-21T19:59:40.788Z,64.54
2022-08-21T20:02:10.545Z,64.97
2022-08-21T20:04:38.565Z,64.73
2022-08-21T20:09:53.323Z,65.31
2022-08-21T20:12:20.626Z,65.30
2022-08-21T20:14:48.337Z,64.93
2022-08-21T20:17:18.889Z,64.68
2022-08-21T20:19:51.253Z,65.49
2022-08-21T20:22:21.319Z,65.58
2022-08-21T20:24:48.379Z,65.60
2022-08-21T20:27:27.460Z,65.18
2022-08-21T20:29:55.241Z,65.12
2022-08-21T20:32:22.626Z,65.97
2022-08-21T20:34:52.130Z,65.40
2022-08-21T20:37:35.794Z,66.04
2022-08-21T20:40:11.079Z,65.55
2022-08-21T20:42:48.349Z,64.98
2022-08-21T20:45:28.915Z,65.47
2022-08-21T20:48:15.202Z,65.29
2022-08-21T20:50:47.907Z,65.23
2022-08-21T20:53:45.921Z,65.55
2022-08-21T20:56:59.850Z,65.98
2022-08-21T20:59:35.426Z,65.59
2022-08-21T21:02:29.213Z,66.84
2022-08-21T21:05:12.585Z,66.99
2022-08-21T21:08:25.486Z,66.69
2022-08-21T21:11:11.217Z,67.07
2022-08-21T21:14:03.150Z,66.90
2022-08-21T21:16:45.913Z,67.08
2022-08-21T21:19:41.778Z,67.32
2022-08-21T21:25:40.571Z,67.65
2022-08-21T21:28:20.676Z,68.37
2022-08-21T21:30:52.068Z,68.79
2022-08-21T21:33:25.611Z,68.24
2022-08-21T21:36:07.803Z,68.49
2022-08-21T21:38:52.198Z,68.11
2022-08-21T21:41:27.957Z,68.59
2022-08-21T21:44:08.767Z,69.08
2022-08-21T21:47:01.039Z,69.70
2022-08-21T21:49:50.203Z,69.75
2022-08-21T21:52:59.486Z,69.66
2022-08-21T21:56:33.101Z,70.46
2022-08-21T21:59:37.051Z,71.19
2022-08-21T22:02:43.245Z,71.60
2022-08-21T22:05:29.012Z,72.02
2022-08-21T22:08:31.160Z,72.96
2022-08-21T22:11:29.334Z,73.47
2022-08-21T22:13:59.722Z,73.33
2022-08-21T22:16:27.078Z,74.05
2022-08-21T22:19:07.172Z,74.06
2022-08-21T22:21:38.672Z,74.40
2022-08-21T22:24:29.563Z,74.68
2022-08-21T22:27:13.475Z,75.54
2022-08-21T22:29:57.833Z,75.13
2022-08-21T22:32:49.213Z,75.33
2022-08-21T22:35:21.831Z,75.12
2022-08-21T22:37:57.521Z,75.12
2022-08-21T22:40:31.053Z,75.15
2022-08-21T22:43:02.996Z,74.93
2022-08-21T22:45:36.752Z,73.92
2022-08-21T22:48:14.700Z,74.28
2022-08-21T22:51:23.179Z,73.68
2022-08-21T22:53:57.710Z,73.32
2022-08-21T22:56:37.738Z,73.39
2022-08-21T22:59:21.171Z,73.18
2022-08-21T23:02:18.108Z,73.86
2022-08-21T23:04:49.665Z,74.08
2022-08-21T23:07:43.439Z,74.33
2022-08-21T23:10:39.637Z,74.44
2022-08-21T23:13:19.130Z,74.27
2022-08-21T23:16:15.586Z,73.98
2022-08-21T23:19:26.406Z,74.78
2022-08-21T23:22:28.842Z,74.88
2022-08-21T23:25:37.844Z,73.82
2022-08-21T23:28:19.033Z,74.39
2022-08-21T23:31:26.555Z,74.62
2022-08-21T23:34:27.512Z,74.62
2022-08-21T23:37:51.501Z,74.52
2022-08-21T23:40:50.978Z,74.98
2022-08-21T23:44:10.747Z,75.36
2022-08-21T23:47:06.203Z,75.69
2022-08-21T23:49:47.099Z,75.41
2022-08-21T23:52:46.581Z,75.89
2022-08-21T23:55:57.413Z,75.86
2022-08-21T23:59:00.439Z,75.84
